Time;durP1;ratioP1;P1;durP2;ratioP2;P2;SDS_P1;SDS_P2;PMS_P1;PMS_P2;Temp;Humidity;BMP_temperature;BMP_pressure;BME280_temperature;BME280_humidity;BME280_pressure;Samples;Min_cycle;Max_cycle;Signal;HPM_P1;HPM_P2
2021/01/15 00:01:05;;;;;;;5.97;4.90;;;-0.40;99.90;;;;;;4993297;28;20184;-63
2021/01/15 00:03:38;;;;;;;6.80;4.30;;;-0.40;99.90;;;;;;4996834;28;20552;-64
2021/01/15 00:06:05;;;;;;;5.40;4.40;;;-0.40;99.90;;;;;;5013109;28;20645;-65
2021/01/15 00:08:38;;;;;;;7.93;5.50;;;-0.40;99.90;;;;;;5008676;28;20177;-65
2021/01/15 00:11:05;;;;;;;9.57;4.70;;;-0.40;99.90;;;;;;4993313;28;20552;-66
2021/01/15 00:13:30;;;;;;;5.77;4.80;;;-0.30;99.90;;;;;;4995408;28;20181;-65
2021/01/15 00:15:56;;;;;;;4.73;4.00;;;-0.30;99.90;;;;;;5012911;28;20172;-66
2021/01/15 00:18:23;;;;;;;7.73;5.37;;;-0.40;99.90;;;;;;4993964;28;20185;-65
2021/01/15 00:20:48;;;;;;;8.97;4.53;;;-0.30;99.90;;;;;;4992941;28;20180;-66
2021/01/15 00:23:17;;;;;;;7.60;3.90;;;-0.30;99.90;;;;;;5009353;28;20180;-65
2021/01/15 00:25:45;;;;;;;6.23;5.27;;;-0.30;99.90;;;;;;5013153;28;20215;-65
2021/01/15 00:28:11;;;;;;;5.63;4.53;;;-0.40;99.90;;;;;;5000221;28;20184;-65
2021/01/15 00:30:37;;;;;;;5.60;4.50;;;-0.40;99.90;;;;;;4996498;28;20316;-65
2021/01/15 00:33:03;;;;;;;6.43;5.03;;;-0.50;99.90;;;;;;5009754;28;20262;-65
2021/01/15 00:35:29;;;;;;;5.70;4.07;;;-0.60;99.90;;;;;;5015547;28;20255;-64
2021/01/15 00:37:54;;;;;;;5.40;4.50;;;-0.60;99.90;;;;;;5003022;28;20204;-65
2021/01/15 00:40:20;;;;;;;5.80;4.50;;;-0.60;99.90;;;;;;4995744;28;20260;-65
2021/01/15 00:42:46;;;;;;;7.50;4.90;;;-0.60;99.90;;;;;;5006152;28;20211;-64
2021/01/15 00:45:16;;;;;;;5.23;4.73;;;-0.60;99.90;;;;;;5015392;28;20281;-64
2021/01/15 00:47:45;;;;;;;5.47;4.17;;;-0.60;99.90;;;;;;5005930;28;20181;-65
2021/01/15 00:50:12;;;;;;;8.40;5.00;;;-0.60;99.90;;;;;;4996204;28;20177;-64
2021/01/15 00:52:38;;;;;;;6.80;4.37;;;-0.70;99.90;;;;;;5003609;28;20604;-65
2021/01/15 00:55:06;;;;;;;6.17;5.37;;;-0.70;99.90;;;;;;5010147;28;20172;-65
2021/01/15 00:57:38;;;;;;;7.17;4.80;;;-0.70;99.90;;;;;;4995586;28;20176;-66
2021/01/15 01:00:07;;;;;;;7.50;4.77;;;-0.70;99.90;;;;;;5000205;28;20180;-65
2021/01/15 01:02:34;;;;;;;6.03;4.93;;;-0.70;99.90;;;;;;5014902;28;20203;-65
2021/01/15 01:04:59;;;;;;;5.73;5.23;;;-0.70;99.90;;;;;;5011873;28;20732;-66
2021/01/15 01:07:25;;;;;;;6.80;5.73;;;-0.70;99.90;;;;;;4995548;28;20177;-66
2021/01/15 01:09:50;;;;;;;7.90;5.27;;;-0.70;99.90;;;;;;4997057;28;20688;-65
2021/01/15 01:12:16;;;;;;;6.83;5.60;;;-0.70;99.90;;;;;;5014613;28;20196;-65
2021/01/15 01:14:42;;;;;;;6.53;5.20;;;-0.70;99.90;;;;;;5014725;28;20391;-63
2021/01/15 01:17:07;;;;;;;10.37;5.43;;;-0.70;99.90;;;;;;4995898;28;20179;-65
2021/01/15 01:19:33;;;;;;;5.87;5.23;;;-0.70;99.90;;;;;;4995289;28;20184;-65
2021/01/15 01:21:59;;;;;;;5.90;5.30;;;-0.70;99.90;;;;;;5012935;28;20206;-65
2021/01/15 01:24:25;;;;;;;6.27;5.33;;;-0.80;99.90;;;;;;5014556;28;20185;-65
2021/01/15 01:26:51;;;;;;;7.07;5.60;;;-0.80;99.90;;;;;;4998680;28;20172;-65
2021/01/15 01:29:16;;;;;;;10.07;5.83;;;-0.80;99.90;;;;;;4995167;28;20228;-65
2021/01/15 01:31:42;;;;;;;12.03;5.17;;;-0.80;99.90;;;;;;5009225;28;20218;-65
2021/01/15 01:34:08;;;;;;;7.20;5.50;;;-0.80;99.90;;;;;;5015011;28;20211;-66
2021/01/15 01:36:33;;;;;;;7.67;5.40;;;-0.90;99.90;;;;;;5001841;28;20181;-66
2021/01/15 01:38:59;;;;;;;7.90;5.53;;;-0.90;99.90;;;;;;4994010;28;20201;-65
2021/01/15 01:41:24;;;;;;;5.93;4.83;;;-0.90;99.90;;;;;;5005480;28;20598;-64
2021/01/15 01:43:50;;;;;;;8.07;5.77;;;-1.00;99.90;;;;;;5007867;28;20193;-66
2021/01/15 01:46:16;;;;;;;7.97;6.27;;;-1.00;99.90;;;;;;4995139;28;20180;-64
2021/01/15 01:48:41;;;;;;;11.90;6.20;;;-1.10;99.90;;;;;;4999219;28;20180;-65
2021/01/15 01:51:07;;;;;;;7.43;5.10;;;-1.20;99.90;;;;;;5014205;28;20207;-66
2021/01/15 01:53:33;;;;;;;7.60;6.10;;;-1.20;99.90;;;;;;5011097;28;20192;-65
2021/01/15 01:56:04;;;;;;;7.77;5.90;;;-1.20;99.90;;;;;;4995116;28;20271;-64
2021/01/15 01:58:30;;;;;;;7.07;6.03;;;-1.20;99.90;;;;;;4996194;28;20177;-65
2021/01/15 02:01:01;;;;;;;8.13;6.13;;;-1.20;99.90;;;;;;5014738;28;20178;-65
2021/01/15 02:03:27;;;;;;;6.77;5.57;;;-1.20;99.90;;;;;;5013047;28;20206;-66
2021/01/15 02:05:53;;;;;;;8.10;6.40;;;-1.20;99.90;;;;;;4994732;28;20750;-65
2021/01/15 02:08:19;;;;;;;8.87;5.97;;;-1.20;99.90;;;;;;4993998;28;20231;-65
2021/01/15 02:11:08;;;;;;;9.43;7.30;;;-1.10;99.90;;;;;;5013162;28;20658;-66
2021/01/15 02:13:56;;;;;;;7.53;5.93;;;-1.00;99.90;;;;;;5003370;28;20242;-64
2021/01/15 02:16:24;;;;;;;7.13;5.40;;;-0.90;99.90;;;;;;4992824;28;20183;-65
2021/01/15 02:19:08;;;;;;;9.40;5.80;;;-0.90;99.90;;;;;;4993930;28;20239;-64
2021/01/15 02:22:04;;;;;;;11.07;6.13;;;-0.70;99.90;;;;;;4994991;28;20912;-65
2021/01/15 02:24:36;;;;;;;7.67;6.30;;;-0.60;99.90;;;;;;5013608;28;20196;-65
2021/01/15 02:27:20;;;;;;;9.07;6.10;;;-0.60;99.90;;;;;;5009586;28;20196;-65
2021/01/15 02:30:09;;;;;;;7.53;6.03;;;-0.50;99.90;;;;;;4993867;28;20213;-65
2021/01/15 02:32:42;;;;;;;9.37;5.57;;;-0.40;99.90;;;;;;4975750;28;20299;-65
2021/01/15 02:35:23;;;;;;;7.70;5.20;;;-0.30;99.90;;;;;;4994230;28;20183;-65
2021/01/15 02:38:02;;;;;;;7.53;5.17;;;-0.20;99.90;;;;;;5003289;28;20188;-64
2021/01/15 02:40:52;;;;;;;7.40;5.40;;;-0.10;99.90;;;;;;5013255;28;20680;-64
2021/01/15 02:43:19;;;;;;;7.10;5.23;;;0.00;99.90;;;;;;5000342;28;20618;-64
2021/01/15 02:45:45;;;;;;;7.33;4.83;;;0.10;99.90;;;;;;4993679;28;20200;-65
2021/01/15 02:48:15;;;;;;;5.80;5.20;;;0.20;99.90;;;;;;5004340;28;20188;-65
2021/01/15 02:50:46;;;;;;;6.53;5.60;;;0.30;99.90;;;;;;4998315;28;20185;-65
2021/01/15 02:53:13;;;;;;;8.47;6.17;;;0.30;99.90;;;;;;5004383;28;20212;-65
2021/01/15 02:55:39;;;;;;;6.93;5.30;;;0.30;99.90;;;;;;5004650;28;20177;-64
2021/01/15 02:58:05;;;;;;;8.70;5.80;;;0.30;99.90;;;;;;4993578;28;20669;-65
2021/01/15 03:00:30;;;;;;;6.13;4.87;;;0.30;99.90;;;;;;4996936;28;20452;-65
2021/01/15 03:03:07;;;;;;;6.50;5.20;;;0.40;99.90;;;;;;5013514;28;20211;-65
2021/01/15 03:05:47;;;;;;;7.43;5.40;;;0.40;99.90;;;;;;5006751;28;20211;-65
2021/01/15 03:08:15;;;;;;;6.17;4.90;;;0.40;99.90;;;;;;4993325;28;20654;-64
2021/01/15 03:10:42;;;;;;;7.20;5.00;;;0.50;99.90;;;;;;4998856;28;20194;-65
2021/01/15 03:13:09;;;;;;;6.40;5.17;;;0.50;99.90;;;;;;5012404;28;20322;-65
2021/01/15 03:15:37;;;;;;;9.67;5.80;;;0.50;99.90;;;;;;5005864;28;20609;-65
2021/01/15 03:18:05;;;;;;;9.43;5.63;;;0.50;99.90;;;;;;4993942;28;20550;-65
2021/01/15 03:20:31;;;;;;;7.23;6.13;;;0.60;99.90;;;;;;4997558;28;20803;-65
2021/01/15 03:22:57;;;;;;;8.20;6.00;;;0.60;99.90;;;;;;5013835;28;20223;-64
2021/01/15 03:25:23;;;;;;;13.63;5.87;;;0.60;99.90;;;;;;5011744;28;20227;-65
2021/01/15 03:27:51;;;;;;;10.00;5.77;;;0.60;99.90;;;;;;4993923;28;20743;-64
2021/01/15 03:30:22;;;;;;;9.00;6.73;;;0.60;99.90;;;;;;5012462;28;20199;-63
2021/01/15 03:32:50;;;;;;;10.87;6.53;;;0.70;99.90;;;;;;5013214;28;20242;-63
2021/01/15 03:35:22;;;;;;;9.50;6.90;;;0.70;99.90;;;;;;4994720;28;20582;-65
2021/01/15 03:37:50;;;;;;;13.50;7.00;;;0.70;99.90;;;;;;4994070;28;20181;-65
2021/01/15 03:40:15;;;;;;;11.67;7.00;;;0.70;99.90;;;;;;5010805;28;20187;-65
2021/01/15 03:42:41;;;;;;;11.37;6.80;;;0.80;99.90;;;;;;5013203;28;20250;-65
2021/01/15 03:45:07;;;;;;;11.57;7.50;;;0.80;99.90;;;;;;4998388;28;20271;-65
2021/01/15 03:47:33;;;;;;;12.43;8.00;;;0.80;99.90;;;;;;4992905;28;20176;-65
2021/01/15 03:49:58;;;;;;;13.73;7.83;;;0.80;99.90;;;;;;4993478;28;20189;-65
2021/01/15 03:52:24;;;;;;;10.37;8.10;;;0.90;99.90;;;;;;4992204;28;20232;-64
2021/01/15 03:54:49;;;;;;;11.00;8.07;;;0.90;99.90;;;;;;5003690;28;20271;-64
2021/01/15 03:57:15;;;;;;;11.63;7.70;;;0.90;99.90;;;;;;5003758;28;20196;-63
2021/01/15 03:59:41;;;;;;;10.80;7.57;;;0.90;99.90;;;;;;4996294;28;20215;-64
2021/01/15 04:02:06;;;;;;;8.90;7.27;;;0.90;99.90;;;;;;5014728;28;20247;-63
2021/01/15 04:04:32;;;;;;;13.97;8.63;;;0.90;99.90;;;;;;5011753;28;20243;-64
2021/01/15 04:06:59;;;;;;;13.80;7.97;;;1.00;99.90;;;;;;4996456;28;20180;-65
2021/01/15 04:09:24;;;;;;;11.47;8.33;;;1.00;99.90;;;;;;4996361;28;20173;-63
2021/01/15 04:11:50;;;;;;;10.93;7.67;;;1.00;99.90;;;;;;5015511;28;20253;-64
2021/01/15 04:14:16;;;;;;;12.13;7.70;;;1.00;99.90;;;;;;5015850;28;20172;-65
2021/01/15 04:16:41;;;;;;;12.33;8.30;;;1.10;99.90;;;;;;4998280;28;20216;-65
2021/01/15 04:19:07;;;;;;;13.53;8.57;;;1.10;99.90;;;;;;4996897;28;20183;-65
2021/01/15 04:21:32;;;;;;;12.80;7.60;;;1.10;99.90;;;;;;5011386;28;20597;-66
2021/01/15 04:23:58;;;;;;;12.27;7.43;;;1.10;99.90;;;;;;5016524;28;20545;-65
2021/01/15 04:26:24;;;;;;;12.33;7.83;;;1.10;99.90;;;;;;5001126;28;20188;-65
2021/01/15 04:28:49;;;;;;;12.27;8.07;;;1.10;99.90;;;;;;4996331;28;20275;-64
2021/01/15 04:31:17;;;;;;;10.93;8.17;;;1.10;99.90;;;;;;5008697;28;20631;-64
2021/01/15 04:33:42;;;;;;;13.20;7.87;;;1.20;99.90;;;;;;5015931;28;20226;-65
2021/01/15 04:36:11;;;;;;;12.70;7.73;;;1.20;99.90;;;;;;5004905;28;20185;-66
2021/01/15 04:38:40;;;;;;;12.83;7.93;;;1.20;99.90;;;;;;4995980;28;20255;-65
2021/01/15 04:41:06;;;;;;;14.13;8.33;;;1.20;99.90;;;;;;5006264;28;20203;-64
2021/01/15 04:43:35;;;;;;;13.87;7.80;;;1.20;99.90;;;;;;5016227;28;20184;-64
2021/01/15 04:46:04;;;;;;;14.57;7.60;;;1.20;99.90;;;;;;5006429;28;20686;-65
2021/01/15 04:48:34;;;;;;;11.03;8.20;;;1.20;99.90;;;;;;4995851;28;20173;-65
2021/01/15 04:51:01;;;;;;;13.77;8.13;;;1.30;99.90;;;;;;5003841;28;20239;-66
2021/01/15 04:53:30;;;;;;;15.43;7.77;;;1.30;99.90;;;;;;5010308;28;20669;-65
2021/01/15 04:55:59;;;;;;;10.97;8.10;;;1.30;99.90;;;;;;5001686;28;20216;-66
2021/01/15 04:58:32;;;;;;;10.40;7.43;;;1.30;99.90;;;;;;5011319;28;20173;-64
2021/01/15 05:00:58;;;;;;;10.63;7.40;;;1.30;99.90;;;;;;4996009;28;20643;-65
2021/01/15 05:03:25;;;;;;;13.47;8.43;;;1.40;99.90;;;;;;4998578;28;20650;-65
2021/01/15 05:06:03;;;;;;;11.20;7.97;;;1.40;99.90;;;;;;5015609;28;20677;-66
2021/01/15 05:08:31;;;;;;;10.00;7.90;;;1.40;99.90;;;;;;5011649;28;20183;-65
2021/01/15 05:10:57;;;;;;;10.40;7.67;;;1.40;99.90;;;;;;4995942;28;20522;-66
2021/01/15 05:13:22;;;;;;;13.87;8.30;;;1.40;99.90;;;;;;4996556;28;20196;-65
2021/01/15 05:15:51;;;;;;;11.27;7.50;;;1.40;99.90;;;;;;5014284;28;20180;-65
2021/01/15 05:18:19;;;;;;;10.70;7.70;;;1.40;99.90;;;;;;5013637;28;20656;-65
2021/01/15 05:20:48;;;;;;;12.10;8.00;;;1.50;99.90;;;;;;5013611;28;20184;-65
2021/01/15 05:23:16;;;;;;;12.07;7.97;;;1.40;99.90;;;;;;5013331;28;20207;-65
2021/01/15 05:25:46;;;;;;;12.77;8.13;;;1.50;99.90;;;;;;4995461;28;20288;-66
2021/01/15 05:28:16;;;;;;;10.33;6.77;;;1.40;99.90;;;;;;4994898;28;20539;-66
2021/01/15 05:30:42;;;;;;;9.10;7.07;;;1.40;99.90;;;;;;5012877;28;20188;-64
2021/01/15 05:33:14;;;;;;;13.27;7.17;;;1.40;99.90;;;;;;5015130;28;20187;-66
2021/01/15 05:35:46;;;;;;;17.70;12.33;;;1.40;99.90;;;;;;4996333;28;20188;-65
2021/01/15 05:38:14;;;;;;;8.20;6.47;;;1.40;99.90;;;;;;4994963;28;20211;-64
2021/01/15 05:40:42;;;;;;;10.00;6.83;;;1.40;99.90;;;;;;5011746;28;20541;-65
2021/01/15 05:43:21;;;;;;;11.20;7.40;;;1.40;99.90;;;;;;5014856;28;20246;-66
2021/01/15 05:46:03;;;;;;;11.90;8.17;;;1.40;99.90;;;;;;4996777;28;20729;-66
2021/01/15 05:48:29;;;;;;;12.07;7.73;;;1.40;99.90;;;;;;5005346;28;20187;-62
2021/01/15 05:50:54;;;;;;;16.13;7.90;;;1.40;99.90;;;;;;5014553;28;20176;-66
2021/01/15 05:53:20;;;;;;;12.07;8.27;;;1.30;99.90;;;;;;5005130;28;20181;-65
2021/01/15 05:56:06;;;;;;;12.83;9.20;;;1.30;99.90;;;;;;4994809;28;20220;-65
2021/01/15 05:58:32;;;;;;;17.00;9.47;;;1.30;99.90;;;;;;5003992;28;20199;-65
2021/01/15 06:00:57;;;;;;;14.50;9.50;;;1.30;99.90;;;;;;5014511;28;20662;-66
2021/01/15 06:03:24;;;;;;;13.53;9.03;;;1.40;99.90;;;;;;5005613;28;20559;-63
2021/01/15 06:05:50;;;;;;;17.43;9.47;;;1.40;99.90;;;;;;5005861;28;20211;-66
2021/01/15 06:08:16;;;;;;;12.73;8.73;;;1.40;99.90;;;;;;5007590;28;20173;-66
2021/01/15 06:10:47;;;;;;;18.03;11.20;;;1.40;99.90;;;;;;4996640;28;20372;-65
2021/01/15 06:13:36;;;;;;;13.93;9.60;;;1.40;99.90;;;;;;5002256;28;20176;-65
2021/01/15 06:16:03;;;;;;;15.77;9.97;;;1.50;99.90;;;;;;5010373;28;20188;-64
2021/01/15 06:18:29;;;;;;;16.53;10.33;;;1.50;99.90;;;;;;4996807;28;20168;-66
2021/01/15 06:21:09;;;;;;;14.67;10.67;;;1.50;99.90;;;;;;4999507;28;20198;-65
2021/01/15 06:23:41;;;;;;;14.50;9.93;;;1.40;99.90;;;;;;5015907;28;20195;-65
2021/01/15 06:26:09;;;;;;;18.13;10.97;;;1.40;99.90;;;;;;5011525;28;20219;-66
2021/01/15 06:28:35;;;;;;;18.10;11.53;;;1.40;99.90;;;;;;4996913;28;20173;-65
2021/01/15 06:31:04;;;;;;;23.07;12.23;;;1.40;99.90;;;;;;5000049;28;20204;-65
2021/01/15 06:33:30;;;;;;;20.97;12.47;;;1.40;99.90;;;;;;5016942;28;20176;-66
2021/01/15 06:35:56;;;;;;;20.67;13.20;;;1.40;99.90;;;;;;5013947;28;20179;-66
2021/01/15 06:38:29;;;;;;;20.97;13.17;;;1.40;99.90;;;;;;4995555;28;20173;-66
2021/01/15 06:40:57;;;;;;;20.27;13.37;;;1.40;99.90;;;;;;4996561;28;20177;-65
2021/01/15 06:43:25;;;;;;;19.83;13.87;;;1.40;99.90;;;;;;5015179;28;20251;-64
2021/01/15 06:45:54;;;;;;;24.80;13.37;;;1.40;99.90;;;;;;4997794;28;20200;-64
2021/01/15 06:48:21;;;;;;;25.37;14.63;;;1.40;99.90;;;;;;4994735;28;20215;-66
2021/01/15 06:50:53;;;;;;;23.93;14.27;;;1.40;99.90;;;;;;5011290;28;20182;-67
2021/01/15 06:53:26;;;;;;;23.90;14.93;;;1.40;99.90;;;;;;5015083;28;20160;-66
2021/01/15 06:55:52;;;;;;;21.97;15.37;;;1.30;99.90;;;;;;4994546;28;20200;-65
2021/01/15 06:58:20;;;;;;;26.10;15.00;;;1.30;99.90;;;;;;4993592;28;20165;-63
2021/01/15 07:01:25;;;;;;;26.07;17.10;;;1.30;99.90;;;;;;5011920;28;20182;-65
2021/01/15 07:03:51;;;;;;;96.97;42.50;;;1.40;99.90;;;;;;5011892;28;20194;-66
2021/01/15 07:06:33;;;;;;;29.33;18.73;;;1.40;99.90;;;;;;4994564;28;20181;-66
2021/01/15 07:09:04;;;;;;;33.50;19.03;;;1.40;99.90;;;;;;4997105;28;20184;-66
2021/01/15 07:11:30;;;;;;;32.57;18.27;;;1.50;99.90;;;;;;5016036;28;20661;-65
2021/01/15 07:14:04;;;;;;;26.80;17.70;;;1.40;99.90;;;;;;4999858;28;20189;-65
2021/01/15 07:16:37;;;;;;;30.27;18.03;;;1.40;99.90;;;;;;4996391;28;20237;-65
2021/01/15 07:19:06;;;;;;;28.60;17.07;;;1.40;99.90;;;;;;5012147;28;20645;-65
2021/01/15 07:21:36;;;;;;;33.40;20.50;;;1.40;99.90;;;;;;5012385;28;20888;-66
2021/01/15 07:24:09;;;;;;;26.20;17.57;;;1.40;99.90;;;;;;4999885;28;20250;-66
2021/01/15 07:26:41;;;;;;;32.47;17.53;;;0.60;99.90;;;;;;4998925;28;20180;-66
2021/01/15 07:29:13;;;;;;;28.43;18.30;;;1.40;99.90;;;;;;5010397;28;20204;-67
2021/01/15 07:31:40;;;;;;;31.57;17.97;;;1.40;99.90;;;;;;5012981;28;20555;-66
2021/01/15 07:34:12;;;;;;;32.70;17.70;;;1.40;99.90;;;;;;4994856;28;20177;-67
2021/01/15 07:36:39;;;;;;;32.03;19.00;;;1.40;99.90;;;;;;4994804;28;20666;-64
2021/01/15 07:39:10;;;;;;;30.73;18.70;;;1.40;99.90;;;;;;4995917;28;20184;-64
2021/01/15 07:41:45;;;;;;;33.27;20.57;;;1.40;99.90;;;;;;4996277;28;20679;-64
2021/01/15 07:44:25;;;;;;;32.57;19.30;;;1.40;99.90;;;;;;4995962;28;20674;-64
2021/01/15 07:47:00;;;;;;;33.50;20.63;;;1.30;99.90;;;;;;5007404;28;20172;-64
2021/01/15 07:49:42;;;;;;;34.83;19.60;;;1.40;99.90;;;;;;5014113;28;20179;-64
2021/01/15 07:52:08;;;;;;;31.83;18.97;;;1.30;99.90;;;;;;5001515;28;20196;-63
2021/01/15 07:54:46;;;;;;;37.57;22.53;;;1.40;99.90;;;;;;4995642;28;20676;-63
2021/01/15 07:57:16;;;;;;;32.57;20.73;;;1.40;99.90;;;;;;5007690;28;20595;-64
2021/01/15 07:59:42;;;;;;;34.70;19.47;;;1.40;99.90;;;;;;5015265;28;20219;-63
2021/01/15 08:02:08;;;;;;;37.83;21.47;;;1.40;99.90;;;;;;5002164;28;20236;-62
2021/01/15 08:04:34;;;;;;;30.70;18.13;;;1.40;99.90;;;;;;4995322;28;20255;-64
2021/01/15 08:07:13;;;;;;;35.20;20.30;;;1.30;99.90;;;;;;4996306;28;20185;-64
2021/01/15 08:09:42;;;;;;;32.03;17.37;;;1.40;99.90;;;;;;5003652;28;20184;-64
2021/01/15 08:12:08;;;;;;;33.43;20.27;;;1.40;99.90;;;;;;5014983;28;20239;-64
2021/01/15 08:14:34;;;;;;;31.53;18.20;;;1.40;99.90;;;;;;5007477;28;20520;-63
2021/01/15 08:17:00;;;;;;;28.10;17.70;;;1.40;99.90;;;;;;4994933;28;20192;-64
2021/01/15 08:19:27;;;;;;;33.57;19.27;;;1.50;99.90;;;;;;4999199;28;20176;-64
2021/01/15 08:21:54;;;;;;;31.90;19.17;;;1.50;99.90;;;;;;5014955;28;20203;-63
2021/01/15 08:24:22;;;;;;;32.90;20.27;;;1.50;99.90;;;;;;5010208;28;20550;-64
2021/01/15 08:26:50;;;;;;;34.43;19.83;;;1.50;99.90;;;;;;4995032;28;20177;-63
2021/01/15 08:29:17;;;;;;;33.67;19.67;;;1.60;99.90;;;;;;4997872;28;20630;-64
2021/01/15 08:31:43;;;;;;;35.80;20.30;;;1.60;99.90;;;;;;5014528;28;20203;-63
2021/01/15 08:34:11;;;;;;;30.40;17.93;;;1.70;99.90;;;;;;5012783;28;20168;-63
2021/01/15 08:36:44;;;;;;;32.70;18.67;;;1.60;99.90;;;;;;4994811;28;20223;-65
2021/01/15 08:39:10;;;;;;;32.10;18.77;;;1.70;99.90;;;;;;4995796;28;20169;-64
2021/01/15 08:41:36;;;;;;;32.37;18.80;;;1.80;99.90;;;;;;5014422;28;20188;-64
2021/01/15 08:44:03;;;;;;;30.73;18.70;;;1.80;99.90;;;;;;5014167;28;20537;-64
2021/01/15 08:46:31;;;;;;;28.90;18.37;;;1.90;99.90;;;;;;4994366;28;20205;-64
2021/01/15 08:48:57;;;;;;;32.53;18.60;;;1.90;99.90;;;;;;4994570;28;20693;-63
2021/01/15 08:51:25;;;;;;;36.33;20.27;;;1.90;99.90;;;;;;5012420;28;20196;-64
2021/01/15 08:54:05;;;;;;;28.10;18.30;;;2.00;99.90;;;;;;5003889;28;20544;-63
2021/01/15 08:56:48;;;;;;;33.00;17.50;;;1.90;99.90;;;;;;4994690;28;20192;-62
2021/01/15 08:59:25;;;;;;;33.30;19.20;;;1.90;99.90;;;;;;5006321;28;20633;-64
2021/01/15 09:01:53;;;;;;;32.07;19.37;;;1.90;99.90;;;;;;5014338;28;20267;-63
2021/01/15 09:04:24;;;;;;;32.83;19.90;;;1.90;99.90;;;;;;4996843;28;20209;-62
2021/01/15 09:06:53;;;;;;;29.40;18.60;;;2.00;99.90;;;;;;4994204;28;20177;-63
2021/01/15 09:09:21;;;;;;;29.33;18.67;;;2.00;99.90;;;;;;5010415;28;20172;-62
2021/01/15 09:11:49;;;;;;;31.97;19.73;;;2.00;99.90;;;;;;5013346;28;20268;-62
2021/01/15 09:14:19;;;;;;;27.93;17.30;;;2.10;99.90;;;;;;5005490;28;20173;-62
2021/01/15 09:16:50;;;;;;;34.00;20.90;;;2.10;99.90;;;;;;5004519;28;20172;-64
2021/01/15 09:19:16;;;;;;;35.10;21.40;;;2.10;99.90;;;;;;5012856;28;20594;-63
2021/01/15 09:21:56;;;;;;;68.30;36.43;;;2.10;99.90;;;;;;5001154;28;20204;-64
2021/01/15 09:24:22;;;;;;;34.27;20.13;;;2.30;99.90;;;;;;5013604;28;20199;-65
2021/01/15 09:26:54;;;;;;;34.97;17.90;;;2.30;99.90;;;;;;5008134;28;20201;-66
2021/01/15 09:29:20;;;;;;;33.60;19.80;;;2.30;99.90;;;;;;4994124;28;20173;-64
2021/01/15 09:31:45;;;;;;;32.60;19.27;;;2.30;99.90;;;;;;5003659;28;20274;-63
2021/01/15 09:34:12;;;;;;;31.77;17.93;;;2.40;99.90;;;;;;5013584;28;20203;-63
2021/01/15 09:36:43;;;;;;;28.73;17.33;;;2.40;99.90;;;;;;5004925;28;20185;-66
2021/01/15 09:39:10;;;;;;;28.43;18.30;;;2.40;99.90;;;;;;4993817;28;20180;-66
2021/01/15 09:41:46;;;;;;;27.30;16.20;;;2.40;99.90;;;;;;5001237;28;20208;-66
2021/01/15 09:44:12;;;;;;;27.70;15.87;;;2.40;99.90;;;;;;5013744;28;20172;-66
2021/01/15 09:46:39;;;;;;;28.27;16.33;;;2.40;99.90;;;;;;5005847;28;20256;-65
2021/01/15 09:49:05;;;;;;;28.40;15.97;;;2.40;99.90;;;;;;4993445;28;20580;-65
2021/01/15 09:51:31;;;;;;;29.73;18.10;;;2.40;99.90;;;;;;4999230;28;20196;-65
2021/01/15 09:53:57;;;;;;;27.70;17.63;;;2.50;99.90;;;;;;5014527;28;20661;-66
2021/01/15 09:56:27;;;;;;;27.47;15.33;;;2.50;99.90;;;;;;5011512;28;20176;-65
2021/01/15 09:58:55;;;;;;;28.33;17.87;;;2.50;99.90;;;;;;4993745;28;20188;-66
2021/01/15 10:01:21;;;;;;;29.93;17.20;;;2.50;99.90;;;;;;4996540;28;20192;-66
2021/01/15 10:03:47;;;;;;;27.27;16.30;;;2.50;99.90;;;;;;5013195;28;20179;-66
2021/01/15 10:06:16;;;;;;;30.17;17.13;;;2.50;99.90;;;;;;5011214;28;20234;-66
2021/01/15 10:08:42;;;;;;;28.73;17.03;;;2.50;99.90;;;;;;4993066;28;20183;-65
2021/01/15 10:11:08;;;;;;;33.10;18.67;;;2.40;99.90;;;;;;4993732;28;20181;-65
2021/01/15 10:13:33;;;;;;;35.63;19.10;;;2.40;99.90;;;;;;5012821;28;20202;-63
2021/01/15 10:16:06;;;;;;;75.83;35.40;;;2.40;99.90;;;;;;5011774;28;20176;-66
2021/01/15 10:18:32;;;;;;;65.80;30.83;;;2.40;99.90;;;;;;5012360;28;20716;-66
2021/01/15 10:20:58;;;;;;;33.93;18.53;;;2.40;99.90;;;;;;5012941;28;20176;-66
2021/01/15 10:23:23;;;;;;;34.07;18.90;;;2.50;99.90;;;;;;4994602;28;20184;-64
2021/01/15 10:25:49;;;;;;;45.73;25.13;;;2.50;99.90;;;;;;4994414;28;20300;-66
2021/01/15 10:28:15;;;;;;;46.47;25.90;;;2.40;99.90;;;;;;4992461;28;20185;-65
2021/01/15 10:30:44;;;;;;;70.80;34.00;;;2.40;99.90;;;;;;4999393;28;20176;-66
2021/01/15 10:33:10;;;;;;;37.37;19.77;;;2.30;99.90;;;;;;5012635;28;20183;-66
2021/01/15 10:35:36;;;;;;;48.07;23.83;;;2.30;99.90;;;;;;5005712;28;20224;-65
2021/01/15 10:38:02;;;;;;;45.87;24.60;;;2.30;99.90;;;;;;4993062;28;20184;-65
2021/01/15 10:40:27;;;;;;;36.17;21.67;;;2.30;99.90;;;;;;4996969;28;20180;-66
2021/01/15 10:42:53;;;;;;;41.63;24.83;;;2.30;99.90;;;;;;5012459;28;20231;-66
2021/01/15 10:45:18;;;;;;;33.77;19.83;;;2.30;99.90;;;;;;5009908;28;20199;-66
2021/01/15 10:47:44;;;;;;;25.83;16.43;;;2.30;99.90;;;;;;4992707;28;20196;-66
2021/01/15 10:50:12;;;;;;;34.80;18.90;;;2.40;99.90;;;;;;4992980;28;20227;-66
2021/01/15 10:52:38;;;;;;;30.83;16.80;;;2.40;99.90;;;;;;5010932;28;20218;-65
2021/01/15 10:55:04;;;;;;;28.07;16.83;;;2.40;99.90;;;;;;4994090;28;20193;-65
2021/01/15 10:57:30;;;;;;;32.57;19.40;;;2.30;99.90;;;;;;4992346;28;20181;-65
2021/01/15 10:59:55;;;;;;;25.90;16.57;;;2.40;99.90;;;;;;5009273;28;20703;-64
2021/01/15 11:02:21;;;;;;;28.63;16.83;;;2.40;99.90;;;;;;5012104;28;20222;-66
2021/01/15 11:04:47;;;;;;;29.00;16.67;;;2.40;99.90;;;;;;4996618;28;20287;-66
2021/01/15 11:07:12;;;;;;;20.77;13.87;;;2.50;99.90;;;;;;4992294;28;20185;-65
2021/01/15 11:09:38;;;;;;;27.67;15.50;;;2.50;99.90;;;;;;5005569;28;20192;-65
2021/01/15 11:12:04;;;;;;;26.77;17.40;;;2.50;99.90;;;;;;5012065;28;20192;-66
2021/01/15 11:14:30;;;;;;;26.50;16.27;;;2.60;99.90;;;;;;5009551;28;20207;-66
2021/01/15 11:16:55;;;;;;;27.87;16.80;;;2.60;99.90;;;;;;5011962;28;20172;-66
2021/01/15 11:19:21;;;;;;;23.23;14.47;;;2.60;99.90;;;;;;5001557;28;20672;-66
2021/01/15 11:21:47;;;;;;;36.00;21.27;;;2.70;99.90;;;;;;4997107;28;20204;-65
2021/01/15 11:24:12;;;;;;;33.73;18.90;;;2.70;99.90;;;;;;5012913;28;20176;-64
2021/01/15 11:26:39;;;;;;;30.50;17.30;;;2.70;99.90;;;;;;5010751;28;20212;-65
2021/01/15 11:29:06;;;;;;;25.17;16.13;;;2.80;99.90;;;;;;5012065;28;20242;-66
2021/01/15 11:34:01;;;;;;;26.03;15.30;;;3.20;99.90;;;;;;5029519;28;20570;-65
2021/01/15 11:36:32;;;;;;;27.33;15.23;;;3.40;99.90;;;;;;5028368;28;20669;-64
2021/01/15 11:39:06;;;;;;;24.10;16.77;;;3.50;99.90;;;;;;5010514;28;20169;-65
2021/01/15 11:41:32;;;;;;;26.60;15.80;;;3.60;99.90;;;;;;5032621;28;20683;-65
2021/01/15 11:43:57;;;;;;;21.30;14.00;;;3.80;99.90;;;;;;5051351;28;20167;-65
2021/01/15 11:46:23;;;;;;;26.27;14.30;;;3.80;99.90;;;;;;5035738;28;20234;-65
2021/01/15 11:48:49;;;;;;;25.67;15.83;;;3.80;99.90;;;;;;5030958;28;20191;-64
2021/01/15 11:51:15;;;;;;;20.30;14.10;;;3.90;99.90;;;;;;5045466;28;20663;-65
2021/01/15 11:53:41;;;;;;;21.63;13.97;;;4.00;99.90;;;;;;5051203;28;20174;-65
2021/01/15 11:56:07;;;;;;;23.23;14.10;;;4.30;99.90;;;;;;5031549;28;20179;-67
2021/01/15 11:58:37;;;;;;;20.33;13.37;;;4.50;99.90;;;;;;5030735;28;20171;-63
2021/01/15 12:01:04;;;;;;;20.17;13.80;;;4.80;99.90;;;;;;5049299;28;20190;-65
2021/01/15 12:03:29;;;;;;;16.97;11.93;;;4.90;99.90;;;;;;5050980;28;20179;-65
2021/01/15 12:05:55;;;;;;;21.40;13.57;;;5.10;99.90;;;;;;5034045;28;20203;-65
2021/01/15 12:08:25;;;;;;;18.03;13.17;;;5.30;99.90;;;;;;5030846;28;20178;-65
2021/01/15 12:11:06;;;;;;;18.03;12.13;;;5.20;99.90;;;;;;5046780;28;20181;-65
2021/01/15 12:13:34;;;;;;;21.20;12.90;;;5.30;99.90;;;;;;5051157;28;20170;-65
2021/01/15 12:16:00;;;;;;;32.40;19.63;;;5.20;99.90;;;;;;5034552;28;20187;-65
2021/01/15 12:18:25;;;;;;;18.47;13.30;;;5.10;99.90;;;;;;5035865;28;20179;-64
2021/01/15 12:20:51;;;;;;;18.63;11.67;;;5.00;99.90;;;;;;5050861;28;20174;-65
2021/01/15 12:23:18;;;;;;;20.67;13.33;;;5.00;99.90;;;;;;5052252;28;20241;-65
2021/01/15 12:25:44;;;;;;;17.83;14.13;;;4.90;99.90;;;;;;5054726;28;20217;-65
2021/01/15 12:28:14;;;;;;;21.60;13.07;;;4.80;99.90;;;;;;5036281;28;20641;-64
2021/01/15 12:30:41;;;;;;;19.40;11.97;;;4.70;99.90;;;;;;5047560;28;20197;-65
2021/01/15 12:33:10;;;;;;;16.20;9.73;;;4.60;99.90;;;;;;5054200;28;20214;-65
2021/01/15 12:35:36;;;;;;;15.03;10.17;;;4.60;99.90;;;;;;5042063;28;20660;-65
2021/01/15 12:38:04;;;;;;;13.03;9.13;;;4.50;99.90;;;;;;5034495;28;20637;-65
2021/01/15 12:40:30;;;;;;;13.37;8.57;;;4.50;99.90;;;;;;5044843;28;20179;-65
2021/01/15 12:42:56;;;;;;;15.23;9.03;;;4.50;99.90;;;;;;5054198;28;20195;-65
2021/01/15 12:45:21;;;;;;;13.50;8.90;;;4.60;99.90;;;;;;5040231;28;20564;-65
2021/01/15 12:47:47;;;;;;;12.57;8.97;;;4.60;99.90;;;;;;5014276;28;20172;-65
2021/01/15 12:50:13;;;;;;;13.97;9.87;;;4.60;99.90;;;;;;5029252;28;20167;-65
2021/01/15 12:52:38;;;;;;;12.67;8.60;;;4.60;99.90;;;;;;5052822;28;20191;-64